Main page
METAR-TAF:

METAR-TAF

Airports :

Federico García Lorca Airport

Granada, Spain

latitude: 37-11N, longitude: 003-47W, elevation: 567 m

Current weather observation

The report was made 36 minutes ago, at 22:30 UTC
Calm wind
Temperature 5°C
Humidity 87%
Pressure 1021 hPa
Visibility 10 km or more
no clouds below 1500 m and no cumulonimbus

METAR: LEGR 242230Z AUTO 00000KT CAVOK 05/03 Q1021

Time: 00:06 (23:06 UTC)

Forecast

The report was made 3 hours and 6 minutes ago, at 20:00 UTC
Forecast valid from 24 at 21 UTC to 25 at 21 UTC
Wind 2 kt from variable directions
Visibility 10 km or more
no clouds below 1500 m and no cumulonimbus
Becoming
from 25 at 12 UTC to 25 at 14 UTC
Wind 10 kt from the South

TAF: LEGR 242000Z 2421/2521 VRB02KT CAVOK TX18/2514Z TN03/2506Z BECMG 2512/2514 17010KT

Weather observations and forecasts of more than 4000 airports (METAR and TAF reports).

The available stations are represented by yellow and red dots on the map.

Hover mouse over dot to see the name of the station.

Then click to see weather observations and forecasts.

To change the map : click on the green buttons with a black cross to zoom in, on the green button with a dash to zoom out, or on the green arrows for adjacent maps.


METAR-TAF: